Time;durP1;ratioP1;P1;durP2;ratioP2;P2;SDS_P1;SDS_P2;PMS_P1;PMS_P2;Temp;Humidity;BMP_temperature;BMP_pressure;BME280_temperature;BME280_humidity;BME280_pressure;Samples;Min_cycle;Max_cycle;Signal;HPM_P1;HPM_P2
2021/06/10 00:06:09;;;;;;;;;14.50;14.50;;;;;-147.17;100.00;59696.56;2;261083796;261083796;-57
2021/06/10 00:17:02;;;;;;;;;12.50;12.50;;;;;-147.17;100.00;59696.56;2;315095643;315095643;-58
2021/06/10 00:26:16;;;;;;;;;14.50;14.50;;;;;-147.17;100.00;59696.56;2;261080845;261080845;-57
2021/06/10 00:37:10;;;;;;;;;13.50;13.50;;;;;-147.17;100.00;59696.56;2;315097533;315097533;-58
2021/06/10 00:46:25;;;;;;;;;8.00;8.00;;;;;-147.17;100.00;59696.56;2;261078676;261078676;-58
2021/06/10 00:57:18;;;;;;;;;13.50;13.50;;;;;-147.17;100.00;59696.56;2;315096500;315096500;-58
2021/06/10 01:06:53;;;;;;;;;13.50;13.50;;;;;-147.17;100.00;59696.56;2;261078139;261078139;-58
2021/06/10 01:17:47;;;;;;;;;14.00;13.50;;;;;-147.17;100.00;59696.56;2;315094595;315094595;-58
2021/06/10 01:27:27;;;;;;;;;13.00;13.00;;;;;-147.17;100.00;59696.56;2;261084972;261084972;-59
2021/06/10 01:38:22;;;;;;;;;11.00;11.00;;;;;-147.17;100.00;59696.56;2;315095141;315095141;-59
2021/06/10 01:47:38;;;;;;;;;15.50;15.50;;;;;-147.17;100.00;59696.56;2;261075216;261075216;-59
2021/06/10 01:58:32;;;;;;;;;20.00;16.00;;;;;-147.17;100.00;59696.56;2;315095345;315095345;-58
2021/06/10 02:07:46;;;;;;;;;9.00;9.00;;;;;-147.17;100.00;59696.56;2;261077529;261077529;-59
2021/06/10 02:18:40;;;;;;;;;9.00;9.00;;;;;-147.17;100.00;59696.56;2;315094333;315094333;-59
2021/06/10 02:27:54;;;;;;;;;10.50;10.50;;;;;-147.17;100.00;59696.56;2;261077339;261077339;-58
2021/06/10 02:39:07;;;;;;;;;16.00;16.00;;;;;-147.17;100.00;59696.56;2;315092546;315092546;-59
2021/06/10 02:48:22;;;;;;;;;6.50;6.50;;;;;-147.17;100.00;59696.56;2;261080243;261080243;-59
2021/06/10 02:59:18;;;;;;;;;11.00;11.00;;;;;-147.17;100.00;59696.56;2;315091611;315091611;-58
2021/06/10 03:08:35;;;;;;;;;13.00;13.00;;;;;-147.17;100.00;59696.56;2;261076514;261076514;-58
2021/06/10 03:19:30;;;;;;;;;8.50;8.50;;;;;-147.17;100.00;59696.56;2;315096267;315096267;-58
2021/06/10 03:28:44;;;;;;;;;13.00;12.00;;;;;-147.17;100.00;59696.56;2;261077908;261077908;-58
2021/06/10 03:39:39;;;;;;;;;10.50;10.50;;;;;-147.17;100.00;59696.56;2;315091427;315091427;-58
2021/06/10 03:48:54;;;;;;;;;12.00;12.00;;;;;-147.17;100.00;59696.56;2;261079684;261079684;-60
2021/06/10 03:59:47;;;;;;;;;9.50;7.00;;;;;-147.17;100.00;59696.56;2;315099777;315099777;-58
2021/06/10 04:09:02;;;;;;;;;13.00;13.00;;;;;-147.17;100.00;59696.56;2;261078527;261078527;-58
2021/06/10 04:19:55;;;;;;;;;10.00;10.00;;;;;-147.17;100.00;59696.56;2;315092006;315092006;-59
2021/06/10 04:29:09;;;;;;;;;11.00;11.00;;;;;-147.17;100.00;59696.56;2;261080705;261080705;-59
2021/06/10 04:40:03;;;;;;;;;8.50;8.50;;;;;-147.17;100.00;59696.56;2;315091669;315091669;-58
2021/06/10 04:49:17;;;;;;;;;6.50;6.50;;;;;-147.17;100.00;59696.56;2;261075188;261075188;-59
2021/06/10 05:00:11;;;;;;;;;7.00;7.00;;;;;-147.17;100.00;59696.56;2;315092923;315092923;-59
2021/06/10 05:09:25;;;;;;;;;9.50;6.50;;;;;-147.17;100.00;59696.56;2;261078148;261078148;-59
2021/06/10 05:20:18;;;;;;;;;7.00;7.00;;;;;-147.17;100.00;59696.56;2;315092009;315092009;-59
2021/06/10 05:29:32;;;;;;;;;4.00;4.00;;;;;-147.17;100.00;59696.56;2;261075341;261075341;-58
2021/06/10 05:40:25;;;;;;;;;3.50;3.50;;;;;-147.17;100.00;59696.56;2;315095832;315095832;-58
2021/06/10 05:49:39;;;;;;;;;3.00;3.00;;;;;-147.17;100.00;59696.56;2;261079950;261079950;-58
2021/06/10 06:00:33;;;;;;;;;3.00;3.00;;;;;-147.17;100.00;59696.56;2;315094184;315094184;-59
2021/06/10 06:09:47;;;;;;;;;4.00;4.00;;;;;-147.17;100.00;59696.56;2;261079489;261079489;-57
2021/06/10 06:20:40;;;;;;;;;2.00;2.00;;;;;-147.17;100.00;59696.56;2;315103140;315103140;-58
2021/06/10 06:29:55;;;;;;;;;3.00;3.00;;;;;-147.17;100.00;59696.56;2;261081123;261081123;-58
2021/06/10 06:40:51;;;;;;;;;2.00;2.00;;;;;-147.17;100.00;59696.56;2;315092493;315092493;-59
2021/06/10 06:50:05;;;;;;;;;3.00;3.00;;;;;-147.17;100.00;59696.56;2;261080141;261080141;-58
2021/06/10 07:00:58;;;;;;;;;6.00;6.00;;;;;-147.17;100.00;59696.56;2;315099447;315099447;-59
2021/06/10 07:10:12;;;;;;;;;3.50;3.50;;;;;-147.17;100.00;59696.56;2;261080823;261080823;-58
2021/06/10 07:21:05;;;;;;;;;3.00;3.00;;;;;-147.17;100.00;59696.56;2;315098593;315098593;-59
2021/06/10 07:30:21;;;;;;;;;1.00;1.00;;;;;-147.17;100.00;59696.56;2;261088288;261088288;-58
2021/06/10 07:41:16;;;;;;;;;6.00;4.00;;;;;-147.17;100.00;59696.56;2;315096098;315096098;-59
2021/06/10 07:50:30;;;;;;;;;3.00;3.00;;;;;-147.17;100.00;59696.56;2;261077156;261077156;-57
2021/06/10 08:01:23;;;;;;;;;4.50;4.50;;;;;-147.17;100.00;59696.56;2;315096444;315096444;-58
2021/06/10 08:10:37;;;;;;;;;4.50;4.50;;;;;-147.17;100.00;59696.56;2;261088946;261088946;-58
2021/06/10 08:21:30;;;;;;;;;1.00;1.00;;;;;-147.17;100.00;59696.56;2;315093948;315093948;-59
2021/06/10 08:30:45;;;;;;;;;1.50;1.50;;;;;-147.17;100.00;59696.56;2;261076666;261076666;-58
2021/06/10 08:41:39;;;;;;;;;4.00;4.00;;;;;-147.17;100.00;59696.56;2;315094402;315094402;-58
2021/06/10 08:50:53;;;;;;;;;3.00;3.00;;;;;-147.17;100.00;59696.56;2;261081190;261081190;-58
2021/06/10 09:01:47;;;;;;;;;3.00;3.00;;;;;-147.17;100.00;59696.56;2;315093108;315093108;-59
2021/06/10 09:11:13;;;;;;;;;1.50;1.50;;;;;-147.17;100.00;59696.56;2;261081872;261081872;-57
2021/06/10 09:22:14;;;;;;;;;5.50;4.50;;;;;-147.17;100.00;59696.56;2;315097135;315097135;-58
2021/06/10 09:31:29;;;;;;;;;4.00;4.00;;;;;-147.17;100.00;59696.56;2;261078090;261078090;-58
2021/06/10 09:42:27;;;;;;;;;3.00;3.00;;;;;-147.17;100.00;59696.56;2;315091672;315091672;-58
2021/06/10 09:51:52;;;;;;;;;11.50;10.00;;;;;-147.17;100.00;59696.56;2;261080268;261080268;-59
2021/06/10 10:03:05;;;;;;;;;10.50;10.50;;;;;-147.17;100.00;59696.56;2;315091908;315091908;-58
2021/06/10 10:12:21;;;;;;;;;6.00;6.00;;;;;-147.17;100.00;59696.56;2;261084078;261084078;-59
2021/06/10 10:23:15;;;;;;;;;6.00;6.00;;;;;-147.17;100.00;59696.56;2;315093061;315093061;-58
2021/06/10 10:32:29;;;;;;;;;6.00;6.00;;;;;-147.17;100.00;59696.56;2;261084194;261084194;-59
2021/06/10 10:43:24;;;;;;;;;6.00;6.00;;;;;-147.17;100.00;59696.56;2;315093209;315093209;-59
2021/06/10 10:52:50;;;;;;;;;9.50;9.50;;;;;-147.17;100.00;59696.56;2;261080094;261080094;-59
2021/06/10 11:03:43;;;;;;;;;5.00;5.00;;;;;-147.17;100.00;59696.56;2;315101533;315101533;-58
2021/06/10 11:12:59;;;;;;;;;6.00;6.00;;;;;-147.17;100.00;59696.56;2;261080225;261080225;-59
2021/06/10 11:24:12;;;;;;;;;8.50;8.50;;;;;-147.17;100.00;59696.56;2;315095337;315095337;-59
2021/06/10 11:33:28;;;;;;;;;12.00;12.00;;;;;-147.17;100.00;59696.56;2;261083853;261083853;-63
2021/06/10 11:44:22;;;;;;;;;13.50;13.50;;;;;-147.17;100.00;59696.56;2;315105138;315105138;-59
2021/06/10 11:54:06;;;;;;;;;11.00;11.00;;;;;-147.17;100.00;59696.56;2;261086740;261086740;-58
2021/06/10 12:05:11;;;;;;;;;8.50;8.50;;;;;-147.17;100.00;59696.56;2;315102471;315102471;-59
2021/06/10 12:14:40;;;;;;;;;6.50;6.50;;;;;-147.17;100.00;59696.56;2;261087296;261087296;-59
2021/06/10 12:25:40;;;;;;;;;4.00;4.00;;;;;-147.17;100.00;59696.56;2;315106907;315106907;-60
2021/06/10 12:34:58;;;;;;;;;9.50;9.50;;;;;-147.17;100.00;59696.56;2;261085978;261085978;-58
2021/06/10 12:46:01;;;;;;;;;12.00;12.00;;;;;-147.17;100.00;59696.56;2;315107466;315107466;-59
2021/06/10 12:55:25;;;;;;;;;13.50;11.50;;;;;-147.17;100.00;59696.56;2;261082064;261082064;-59
2021/06/10 13:06:25;;;;;;;;;13.00;13.00;;;;;-147.17;100.00;59696.56;2;315091678;315091678;-59
2021/06/10 13:15:40;;;;;;;;;16.50;16.50;;;;;-147.17;100.00;59696.56;2;261079657;261079657;-59
2021/06/10 13:26:35;;;;;;;;;17.00;17.00;;;;;-147.17;100.00;59696.56;2;315106167;315106167;-58
2021/06/10 13:35:50;;;;;;;;;9.00;9.00;;;;;-147.17;100.00;59696.56;2;261088414;261088414;-59
2021/06/10 13:46:44;;;;;;;;;11.00;11.00;;;;;-147.17;100.00;59696.56;2;315094711;315094711;-59
2021/06/10 13:55:58;;;;;;;;;13.50;13.50;;;;;-147.17;100.00;59696.56;2;261076717;261076717;-59
2021/06/10 14:06:53;;;;;;;;;10.50;10.50;;;;;-147.17;100.00;59696.56;2;315094462;315094462;-59
2021/06/10 14:16:09;;;;;;;;;11.50;11.50;;;;;-147.17;100.00;59696.56;2;261080114;261080114;-60
2021/06/10 14:27:03;;;;;;;;;15.00;15.00;;;;;-147.17;100.00;59696.56;2;315092978;315092978;-59
2021/06/10 14:36:18;;;;;;;;;15.00;15.00;;;;;-147.17;100.00;59696.56;2;261079839;261079839;-59
2021/06/10 14:47:11;;;;;;;;;8.00;8.00;;;;;-147.17;100.00;59696.56;2;315095513;315095513;-59
2021/06/10 14:56:25;;;;;;;;;13.00;13.00;;;;;-147.17;100.00;59696.56;2;261081501;261081501;-58
2021/06/10 15:07:18;;;;;;;;;12.00;12.00;;;;;-147.17;100.00;59696.56;2;315096528;315096528;-59
2021/06/10 15:16:33;;;;;;;;;13.00;13.00;;;;;-147.17;100.00;59696.56;2;261083679;261083679;-59
2021/06/10 15:27:26;;;;;;;;;12.50;12.50;;;;;-147.17;100.00;59696.56;2;315093859;315093859;-60
2021/06/10 15:36:40;;;;;;;;;10.50;10.50;;;;;-147.17;100.00;59696.56;2;261077649;261077649;-60
2021/06/10 15:47:35;;;;;;;;;13.00;12.00;;;;;-147.17;100.00;59696.56;2;315093635;315093635;-59
2021/06/10 15:56:49;;;;;;;;;13.00;13.00;;;;;-147.17;100.00;59696.56;2;261076343;261076343;-58
2021/06/10 16:07:43;;;;;;;;;12.00;12.00;;;;;-147.17;100.00;59696.56;2;315094808;315094808;-59
2021/06/10 16:16:57;;;;;;;;;9.50;9.50;;;;;-147.17;100.00;59696.56;2;261077318;261077318;-58
2021/06/10 16:27:50;;;;;;;;;12.50;12.50;;;;;-147.17;100.00;59696.56;2;315090424;315090424;-59
2021/06/10 16:37:05;;;;;;;;;11.50;11.50;;;;;-147.17;100.00;59696.56;2;261082564;261082564;-58
2021/06/10 16:47:58;;;;;;;;;11.50;11.50;;;;;-147.17;100.00;59696.56;2;315096177;315096177;-59
2021/06/10 16:57:14;;;;;;;;;17.00;11.50;;;;;-147.17;100.00;59696.56;2;261079602;261079602;-59
2021/06/10 17:08:07;;;;;;;;;12.50;12.50;;;;;-147.17;100.00;59696.56;2;315092597;315092597;-59
2021/06/10 17:17:22;;;;;;;;;13.00;11.00;;;;;-147.17;100.00;59696.56;2;261079718;261079718;-59
2021/06/10 17:28:16;;;;;;;;;8.50;8.50;;;;;-147.17;100.00;59696.56;2;315093672;315093672;-58
2021/06/10 17:37:30;;;;;;;;;12.50;12.50;;;;;-147.17;100.00;59696.56;2;261080933;261080933;-60
2021/06/10 17:48:23;;;;;;;;;5.50;5.50;;;;;-147.17;100.00;59696.56;2;315094275;315094275;-59
2021/06/10 17:57:38;;;;;;;;;11.00;11.00;;;;;-147.17;100.00;59696.56;2;261078529;261078529;-60
2021/06/10 18:08:31;;;;;;;;;7.50;7.50;;;;;-147.17;100.00;59696.56;2;315095057;315095057;-59
2021/06/10 18:17:45;;;;;;;;;9.50;9.50;;;;;-147.17;100.00;59696.56;2;261078989;261078989;-60
2021/06/10 18:28:39;;;;;;;;;8.00;8.00;;;;;-147.17;100.00;59696.56;2;315095444;315095444;-59
2021/06/10 18:37:53;;;;;;;;;3.50;3.50;;;;;-147.17;100.00;59696.56;2;261077194;261077194;-59
2021/06/10 18:48:46;;;;;;;;;14.50;14.50;;;;;-147.17;100.00;59696.56;2;315094062;315094062;-59
2021/06/10 18:58:00;;;;;;;;;13.00;13.00;;;;;-147.17;100.00;59696.56;2;261078164;261078164;-59
2021/06/10 19:08:54;;;;;;;;;6.50;6.50;;;;;-147.17;100.00;59696.56;2;315097576;315097576;-58
2021/06/10 19:18:08;;;;;;;;;10.50;10.50;;;;;-147.17;100.00;59696.56;2;261081043;261081043;-59
2021/06/10 19:29:02;;;;;;;;;7.00;7.00;;;;;-147.17;100.00;59696.56;2;315094869;315094869;-47
2021/06/10 19:38:19;;;;;;;;;13.00;13.00;;;;;-147.17;100.00;59696.56;2;261082205;261082205;-53
2021/06/10 19:49:17;;;;;;;;;9.50;9.50;;;;;-147.17;100.00;59696.56;2;315096754;315096754;-47
2021/06/10 19:58:31;;;;;;;;;6.50;6.50;;;;;-147.17;100.00;59696.56;2;261084137;261084137;-54
2021/06/10 20:09:26;;;;;;;;;7.50;7.50;;;;;-147.17;100.00;59696.56;2;315096641;315096641;-53
2021/06/10 20:18:40;;;;;;;;;8.00;8.00;;;;;-147.17;100.00;59696.56;2;261076868;261076868;-52
2021/06/10 20:39:06;;;;;;;;;18.50;18.50;;;;;-147.17;100.00;59696.56;2;261079641;261079641;-54
2021/06/10 20:50:00;;;;;;;;;6.00;6.00;;;;;-147.17;100.00;59696.56;2;315108993;315108993;-53
2021/06/10 20:59:15;;;;;;;;;10.00;10.00;;;;;-147.17;100.00;59696.56;2;261102568;261102568;-52
2021/06/10 21:10:09;;;;;;;;;15.50;10.00;;;;;-147.17;100.00;59696.56;2;315124540;315124540;-52
2021/06/10 21:19:23;;;;;;;;;14.00;14.00;;;;;-147.17;100.00;59696.56;2;261103272;261103272;-53
2021/06/10 21:30:17;;;;;;;;;13.00;13.00;;;;;-147.17;100.00;59696.56;2;315131174;315131174;-49
2021/06/10 21:39:31;;;;;;;;;9.50;9.50;;;;;-147.17;100.00;59696.56;2;261102420;261102420;-52
2021/06/10 21:50:25;;;;;;;;;11.00;11.00;;;;;-147.17;100.00;59696.56;2;315130370;315130370;-52
2021/06/10 21:59:40;;;;;;;;;9.00;9.00;;;;;-147.17;100.00;59696.56;2;261104117;261104117;-52
2021/06/10 22:10:36;;;;;;;;;6.00;6.00;;;;;-147.17;100.00;59696.56;2;315131202;315131202;-53
2021/06/10 22:19:51;;;;;;;;;9.00;9.00;;;;;-147.17;100.00;59696.56;2;261100865;261100865;-48
2021/06/10 22:30:44;;;;;;;;;10.50;10.50;;;;;-147.17;100.00;59696.56;2;315122094;315122094;-52
2021/06/10 22:39:59;;;;;;;;;3.50;3.50;;;;;-147.17;100.00;59696.56;2;261114031;261114031;-53
2021/06/10 22:50:52;;;;;;;;;4.00;4.00;;;;;-147.17;100.00;59696.56;2;315128666;315128666;-53
2021/06/10 23:00:06;;;;;;;;;8.00;8.00;;;;;-147.17;100.00;59696.56;2;261102395;261102395;-52
2021/06/10 23:11:00;;;;;;;;;2.00;2.00;;;;;-147.17;100.00;59696.56;2;315128885;315128885;-49
2021/06/10 23:20:15;;;;;;;;;4.50;4.50;;;;;-147.17;100.00;59696.56;2;261115887;261115887;-50
2021/06/10 23:31:08;;;;;;;;;2.00;2.00;;;;;-147.17;100.00;59696.56;2;315120828;315120828;-51
2021/06/10 23:40:23;;;;;;;;;5.50;5.50;;;;;-147.17;100.00;59696.56;2;261102450;261102450;-51
2021/06/10 23:51:20;;;;;;;;;4.00;4.00;;;;;-147.17;100.00;59696.56;2;315125515;315125515;-49
